sensor_id;sensor_type;location;lat;lon;timestamp;P1;durP1;ratioP1;P2;durP2;ratioP2
67839;SDS011;54636;51.684;5.142;2023-09-19T00:00:13;9.50;;;2.55;;
67839;SDS011;54636;51.684;5.142;2023-09-19T00:02:38;17.48;;;2.63;;
67839;SDS011;54636;51.684;5.142;2023-09-19T00:05:04;18.75;;;2.78;;
67839;SDS011;54636;51.684;5.142;2023-09-19T00:07:30;12.10;;;3.00;;
67839;SDS011;54636;51.684;5.142;2023-09-19T00:09:55;11.18;;;3.22;;
67839;SDS011;54636;51.684;5.142;2023-09-19T00:12:21;17.77;;;2.70;;
67839;SDS011;54636;51.684;5.142;2023-09-19T00:14:46;11.82;;;3.00;;
67839;SDS011;54636;51.684;5.142;2023-09-19T00:17:12;10.18;;;2.10;;
67839;SDS011;54636;51.684;5.142;2023-09-19T00:19:41;9.77;;;2.67;;
67839;SDS011;54636;51.684;5.142;2023-09-19T00:22:07;9.90;;;2.10;;
67839;SDS011;54636;51.684;5.142;2023-09-19T00:24:33;15.05;;;3.65;;
67839;SDS011;54636;51.684;5.142;2023-09-19T00:26:58;17.52;;;3.03;;
67839;SDS011;54636;51.684;5.142;2023-09-19T00:29:24;8.02;;;2.63;;
67839;SDS011;54636;51.684;5.142;2023-09-19T00:31:54;12.20;;;3.20;;
67839;SDS011;54636;51.684;5.142;2023-09-19T00:34:21;16.58;;;2.67;;
67839;SDS011;54636;51.684;5.142;2023-09-19T00:36:46;11.05;;;2.50;;
67839;SDS011;54636;51.684;5.142;2023-09-19T00:39:11;14.63;;;2.40;;
67839;SDS011;54636;51.684;5.142;2023-09-19T00:41:37;13.40;;;2.88;;
67839;SDS011;54636;51.684;5.142;2023-09-19T00:44:03;13.77;;;2.13;;
67839;SDS011;54636;51.684;5.142;2023-09-19T00:46:29;12.90;;;2.55;;
67839;SDS011;54636;51.684;5.142;2023-09-19T00:48:55;15.20;;;3.05;;
67839;SDS011;54636;51.684;5.142;2023-09-19T00:51:22;8.02;;;2.60;;
67839;SDS011;54636;51.684;5.142;2023-09-19T00:53:51;9.57;;;2.80;;
67839;SDS011;54636;51.684;5.142;2023-09-19T00:56:17;6.07;;;2.92;;
67839;SDS011;54636;51.684;5.142;2023-09-19T00:58:43;11.40;;;3.20;;
67839;SDS011;54636;51.684;5.142;2023-09-19T01:01:15;10.93;;;2.67;;
67839;SDS011;54636;51.684;5.142;2023-09-19T01:03:42;11.82;;;2.47;;
67839;SDS011;54636;51.684;5.142;2023-09-19T01:06:07;12.05;;;2.47;;
67839;SDS011;54636;51.684;5.142;2023-09-19T01:08:33;7.57;;;2.45;;
67839;SDS011;54636;51.684;5.142;2023-09-19T01:11:01;12.32;;;3.38;;
67839;SDS011;54636;51.684;5.142;2023-09-19T01:17:00;14.20;;;3.05;;
67839;SDS011;54636;51.684;5.142;2023-09-19T01:22:26;11.43;;;2.72;;
67839;SDS011;54636;51.684;5.142;2023-09-19T01:30:57;12.00;;;2.67;;
67839;SDS011;54636;51.684;5.142;2023-09-19T01:33:25;26.45;;;3.70;;
67839;SDS011;54636;51.684;5.142;2023-09-19T01:35:51;9.10;;;3.25;;
67839;SDS011;54636;51.684;5.142;2023-09-19T01:38:17;14.73;;;2.55;;
67839;SDS011;54636;51.684;5.142;2023-09-19T01:40:46;13.05;;;3.25;;
67839;SDS011;54636;51.684;5.142;2023-09-19T01:51:42;13.45;;;3.38;;
67839;SDS011;54636;51.684;5.142;2023-09-19T01:54:11;10.38;;;2.38;;
67839;SDS011;54636;51.684;5.142;2023-09-19T01:59:47;9.65;;;3.05;;
67839;SDS011;54636;51.684;5.142;2023-09-19T02:02:17;10.75;;;2.25;;
67839;SDS011;54636;51.684;5.142;2023-09-19T02:04:47;11.63;;;2.65;;
67839;SDS011;54636;51.684;5.142;2023-09-19T02:07:14;12.68;;;2.67;;
67839;SDS011;54636;51.684;5.142;2023-09-19T02:09:40;15.10;;;2.65;;
67839;SDS011;54636;51.684;5.142;2023-09-19T02:12:08;12.18;;;2.15;;
67839;SDS011;54636;51.684;5.142;2023-09-19T02:14:34;11.68;;;3.08;;
67839;SDS011;54636;51.684;5.142;2023-09-19T02:17:01;9.23;;;2.67;;
67839;SDS011;54636;51.684;5.142;2023-09-19T02:19:28;8.50;;;2.03;;
67839;SDS011;54636;51.684;5.142;2023-09-19T02:21:54;7.82;;;2.50;;
67839;SDS011;54636;51.684;5.142;2023-09-19T02:24:20;17.10;;;2.45;;
67839;SDS011;54636;51.684;5.142;2023-09-19T02:26:45;10.75;;;2.30;;
67839;SDS011;54636;51.684;5.142;2023-09-19T02:29:12;9.45;;;2.63;;
67839;SDS011;54636;51.684;5.142;2023-09-19T02:31:38;12.20;;;2.60;;
67839;SDS011;54636;51.684;5.142;2023-09-19T02:34:04;14.05;;;2.92;;
67839;SDS011;54636;51.684;5.142;2023-09-19T02:36:31;8.57;;;3.13;;
67839;SDS011;54636;51.684;5.142;2023-09-19T02:38:57;9.25;;;2.78;;
67839;SDS011;54636;51.684;5.142;2023-09-19T02:41:22;13.77;;;2.65;;
67839;SDS011;54636;51.684;5.142;2023-09-19T02:43:47;16.00;;;3.55;;
67839;SDS011;54636;51.684;5.142;2023-09-19T02:46:13;6.60;;;2.22;;
67839;SDS011;54636;51.684;5.142;2023-09-19T02:48:39;10.35;;;2.35;;
67839;SDS011;54636;51.684;5.142;2023-09-19T02:51:04;12.13;;;2.72;;
67839;SDS011;54636;51.684;5.142;2023-09-19T02:53:30;7.72;;;2.33;;
67839;SDS011;54636;51.684;5.142;2023-09-19T02:55:56;13.82;;;2.78;;
67839;SDS011;54636;51.684;5.142;2023-09-19T02:58:22;7.10;;;1.83;;
67839;SDS011;54636;51.684;5.142;2023-09-19T03:00:50;5.35;;;2.28;;
67839;SDS011;54636;51.684;5.142;2023-09-19T03:03:16;11.38;;;2.90;;
67839;SDS011;54636;51.684;5.142;2023-09-19T03:05:42;7.75;;;2.65;;
67839;SDS011;54636;51.684;5.142;2023-09-19T03:08:13;7.68;;;1.80;;
67839;SDS011;54636;51.684;5.142;2023-09-19T03:10:40;6.18;;;1.67;;
67839;SDS011;54636;51.684;5.142;2023-09-19T03:13:05;7.18;;;1.98;;
67839;SDS011;54636;51.684;5.142;2023-09-19T03:15:34;5.15;;;2.08;;
67839;SDS011;54636;51.684;5.142;2023-09-19T03:18:02;12.38;;;2.50;;
67839;SDS011;54636;51.684;5.142;2023-09-19T03:20:28;6.22;;;2.10;;
67839;SDS011;54636;51.684;5.142;2023-09-19T03:22:53;10.32;;;3.08;;
67839;SDS011;54636;51.684;5.142;2023-09-19T03:25:18;11.95;;;2.42;;
67839;SDS011;54636;51.684;5.142;2023-09-19T03:27:44;6.72;;;2.28;;
67839;SDS011;54636;51.684;5.142;2023-09-19T03:30:09;6.68;;;2.70;;
67839;SDS011;54636;51.684;5.142;2023-09-19T03:32:43;10.27;;;2.75;;
67839;SDS011;54636;51.684;5.142;2023-09-19T03:35:12;10.15;;;2.55;;
67839;SDS011;54636;51.684;5.142;2023-09-19T03:37:39;8.77;;;1.92;;
67839;SDS011;54636;51.684;5.142;2023-09-19T03:40:08;12.30;;;2.58;;
67839;SDS011;54636;51.684;5.142;2023-09-19T03:42:37;9.65;;;2.38;;
67839;SDS011;54636;51.684;5.142;2023-09-19T03:45:04;7.13;;;1.85;;
67839;SDS011;54636;51.684;5.142;2023-09-19T03:47:31;8.52;;;1.98;;
67839;SDS011;54636;51.684;5.142;2023-09-19T03:49:56;7.57;;;2.08;;
67839;SDS011;54636;51.684;5.142;2023-09-19T03:52:22;6.35;;;2.00;;
67839;SDS011;54636;51.684;5.142;2023-09-19T03:54:47;10.52;;;2.88;;
67839;SDS011;54636;51.684;5.142;2023-09-19T03:57:12;12.00;;;2.10;;
67839;SDS011;54636;51.684;5.142;2023-09-19T03:59:40;8.48;;;1.92;;
67839;SDS011;54636;51.684;5.142;2023-09-19T04:02:07;10.82;;;2.38;;
67839;SDS011;54636;51.684;5.142;2023-09-19T04:04:36;8.43;;;2.57;;
67839;SDS011;54636;51.684;5.142;2023-09-19T04:07:02;8.77;;;2.55;;
67839;SDS011;54636;51.684;5.142;2023-09-19T04:09:27;11.23;;;2.53;;
67839;SDS011;54636;51.684;5.142;2023-09-19T04:11:53;10.45;;;2.55;;
67839;SDS011;54636;51.684;5.142;2023-09-19T04:14:18;19.00;;;3.28;;
67839;SDS011;54636;51.684;5.142;2023-09-19T04:16:43;20.85;;;2.67;;
67839;SDS011;54636;51.684;5.142;2023-09-19T04:19:09;8.80;;;2.72;;
67839;SDS011;54636;51.684;5.142;2023-09-19T04:21:34;9.40;;;2.38;;
67839;SDS011;54636;51.684;5.142;2023-09-19T04:24:00;15.88;;;2.65;;
67839;SDS011;54636;51.684;5.142;2023-09-19T04:26:25;11.30;;;2.78;;
67839;SDS011;54636;51.684;5.142;2023-09-19T04:28:51;9.10;;;2.45;;
67839;SDS011;54636;51.684;5.142;2023-09-19T04:31:16;12.68;;;2.70;;
67839;SDS011;54636;51.684;5.142;2023-09-19T04:33:43;14.43;;;2.20;;
67839;SDS011;54636;51.684;5.142;2023-09-19T04:36:08;11.70;;;2.80;;
67839;SDS011;54636;51.684;5.142;2023-09-19T04:38:34;9.07;;;2.45;;
67839;SDS011;54636;51.684;5.142;2023-09-19T04:41:00;10.35;;;2.67;;
67839;SDS011;54636;51.684;5.142;2023-09-19T04:43:25;15.20;;;2.63;;
67839;SDS011;54636;51.684;5.142;2023-09-19T04:45:51;15.38;;;2.65;;
67839;SDS011;54636;51.684;5.142;2023-09-19T04:48:21;11.35;;;2.85;;
67839;SDS011;54636;51.684;5.142;2023-09-19T04:50:54;9.55;;;2.50;;
67839;SDS011;54636;51.684;5.142;2023-09-19T04:53:19;14.35;;;2.45;;
67839;SDS011;54636;51.684;5.142;2023-09-19T04:55:49;15.82;;;2.47;;
67839;SDS011;54636;51.684;5.142;2023-09-19T05:00:42;11.82;;;2.83;;
67839;SDS011;54636;51.684;5.142;2023-09-19T05:03:08;6.85;;;1.95;;
67839;SDS011;54636;51.684;5.142;2023-09-19T05:05:34;8.00;;;2.60;;
67839;SDS011;54636;51.684;5.142;2023-09-19T05:07:59;8.68;;;3.05;;
67839;SDS011;54636;51.684;5.142;2023-09-19T05:10:25;14.73;;;3.13;;
67839;SDS011;54636;51.684;5.142;2023-09-19T05:12:52;13.80;;;2.13;;
67839;SDS011;54636;51.684;5.142;2023-09-19T05:15:18;7.10;;;2.55;;
67839;SDS011;54636;51.684;5.142;2023-09-19T05:17:47;11.18;;;2.45;;
67839;SDS011;54636;51.684;5.142;2023-09-19T05:20:16;17.35;;;2.72;;
67839;SDS011;54636;51.684;5.142;2023-09-19T05:22:50;11.70;;;2.75;;
67839;SDS011;54636;51.684;5.142;2023-09-19T05:25:27;6.63;;;2.50;;
67839;SDS011;54636;51.684;5.142;2023-09-19T05:27:56;7.67;;;2.20;;
67839;SDS011;54636;51.684;5.142;2023-09-19T05:30:23;8.20;;;2.10;;
67839;SDS011;54636;51.684;5.142;2023-09-19T05:32:48;9.07;;;2.55;;
67839;SDS011;54636;51.684;5.142;2023-09-19T05:35:14;8.00;;;2.10;;
67839;SDS011;54636;51.684;5.142;2023-09-19T05:37:39;11.15;;;2.17;;
67839;SDS011;54636;51.684;5.142;2023-09-19T05:40:05;16.83;;;2.90;;
67839;SDS011;54636;51.684;5.142;2023-09-19T05:42:34;7.68;;;1.80;;
67839;SDS011;54636;51.684;5.142;2023-09-19T05:44:59;11.65;;;2.72;;
67839;SDS011;54636;51.684;5.142;2023-09-19T05:47:25;13.75;;;2.25;;
67839;SDS011;54636;51.684;5.142;2023-09-19T05:49:50;11.25;;;2.88;;
67839;SDS011;54636;51.684;5.142;2023-09-19T05:52:17;12.02;;;2.90;;
67839;SDS011;54636;51.684;5.142;2023-09-19T05:54:42;14.00;;;3.03;;
67839;SDS011;54636;51.684;5.142;2023-09-19T05:57:08;13.73;;;2.70;;
67839;SDS011;54636;51.684;5.142;2023-09-19T05:59:43;12.30;;;2.25;;
67839;SDS011;54636;51.684;5.142;2023-09-19T06:05:30;12.68;;;2.10;;
67839;SDS011;54636;51.684;5.142;2023-09-19T06:07:57;9.10;;;2.65;;
67839;SDS011;54636;51.684;5.142;2023-09-19T06:10:25;12.15;;;4.10;;
67839;SDS011;54636;51.684;5.142;2023-09-19T06:12:52;12.27;;;2.00;;
67839;SDS011;54636;51.684;5.142;2023-09-19T06:15:20;13.85;;;2.67;;
67839;SDS011;54636;51.684;5.142;2023-09-19T06:17:51;14.52;;;3.08;;
67839;SDS011;54636;51.684;5.142;2023-09-19T06:20:20;10.38;;;2.30;;
67839;SDS011;54636;51.684;5.142;2023-09-19T06:22:47;14.10;;;3.10;;
67839;SDS011;54636;51.684;5.142;2023-09-19T06:25:13;12.80;;;2.50;;
67839;SDS011;54636;51.684;5.142;2023-09-19T06:27:47;15.32;;;2.60;;
67839;SDS011;54636;51.684;5.142;2023-09-19T06:30:22;11.52;;;2.58;;
67839;SDS011;54636;51.684;5.142;2023-09-19T06:32:49;7.85;;;1.98;;
67839;SDS011;54636;51.684;5.142;2023-09-19T06:35:20;11.75;;;2.30;;
67839;SDS011;54636;51.684;5.142;2023-09-19T06:37:45;18.85;;;2.80;;
67839;SDS011;54636;51.684;5.142;2023-09-19T06:40:11;13.00;;;3.03;;
67839;SDS011;54636;51.684;5.142;2023-09-19T06:42:42;15.95;;;3.17;;
67839;SDS011;54636;51.684;5.142;2023-09-19T06:47:38;12.43;;;2.35;;
67839;SDS011;54636;51.684;5.142;2023-09-19T06:50:04;14.90;;;3.67;;
67839;SDS011;54636;51.684;5.142;2023-09-19T06:52:31;14.00;;;2.33;;
67839;SDS011;54636;51.684;5.142;2023-09-19T06:54:58;13.23;;;2.83;;
67839;SDS011;54636;51.684;5.142;2023-09-19T06:57:23;15.55;;;2.65;;
67839;SDS011;54636;51.684;5.142;2023-09-19T06:59:49;17.80;;;3.20;;
67839;SDS011;54636;51.684;5.142;2023-09-19T07:02:15;16.75;;;2.85;;
67839;SDS011;54636;51.684;5.142;2023-09-19T07:04:40;13.95;;;2.72;;
67839;SDS011;54636;51.684;5.142;2023-09-19T07:07:06;14.30;;;2.90;;
67839;SDS011;54636;51.684;5.142;2023-09-19T07:09:33;20.08;;;2.85;;
67839;SDS011;54636;51.684;5.142;2023-09-19T07:11:59;10.13;;;2.25;;
67839;SDS011;54636;51.684;5.142;2023-09-19T07:14:25;13.70;;;2.55;;
67839;SDS011;54636;51.684;5.142;2023-09-19T07:16:51;15.82;;;2.92;;
67839;SDS011;54636;51.684;5.142;2023-09-19T07:19:17;14.55;;;2.78;;
67839;SDS011;54636;51.684;5.142;2023-09-19T07:21:42;14.38;;;3.08;;
67839;SDS011;54636;51.684;5.142;2023-09-19T07:24:08;13.50;;;2.92;;
67839;SDS011;54636;51.684;5.142;2023-09-19T07:26:33;12.15;;;2.97;;
67839;SDS011;54636;51.684;5.142;2023-09-19T07:28:59;19.70;;;2.80;;
67839;SDS011;54636;51.684;5.142;2023-09-19T07:31:27;8.15;;;2.85;;
67839;SDS011;54636;51.684;5.142;2023-09-19T07:33:53;6.65;;;2.20;;
67839;SDS011;54636;51.684;5.142;2023-09-19T07:36:19;12.48;;;2.55;;
67839;SDS011;54636;51.684;5.142;2023-09-19T07:38:45;13.85;;;2.22;;
67839;SDS011;54636;51.684;5.142;2023-09-19T07:41:10;16.60;;;3.17;;
67839;SDS011;54636;51.684;5.142;2023-09-19T07:43:38;15.32;;;3.20;;
67839;SDS011;54636;51.684;5.142;2023-09-19T07:46:07;14.10;;;2.73;;
67839;SDS011;54636;51.684;5.142;2023-09-19T07:48:36;18.10;;;3.53;;
67839;SDS011;54636;51.684;5.142;2023-09-19T07:51:03;12.90;;;3.53;;
67839;SDS011;54636;51.684;5.142;2023-09-19T07:53:29;13.68;;;3.47;;
67839;SDS011;54636;51.684;5.142;2023-09-19T07:56:05;10.45;;;2.78;;
67839;SDS011;54636;51.684;5.142;2023-09-19T07:58:31;19.38;;;2.85;;
67839;SDS011;54636;51.684;5.142;2023-09-19T08:03:34;15.27;;;2.97;;
67839;SDS011;54636;51.684;5.142;2023-09-19T08:06:00;13.68;;;2.95;;
67839;SDS011;54636;51.684;5.142;2023-09-19T08:08:26;9.98;;;3.00;;
67839;SDS011;54636;51.684;5.142;2023-09-19T08:10:56;14.27;;;2.70;;
67839;SDS011;54636;51.684;5.142;2023-09-19T08:15:51;16.13;;;3.10;;
67839;SDS011;54636;51.684;5.142;2023-09-19T08:18:18;7.95;;;2.50;;
67839;SDS011;54636;51.684;5.142;2023-09-19T08:20:48;11.95;;;2.47;;
67839;SDS011;54636;51.684;5.142;2023-09-19T08:23:15;11.73;;;2.80;;
67839;SDS011;54636;51.684;5.142;2023-09-19T08:25:42;12.85;;;3.53;;
67839;SDS011;54636;51.684;5.142;2023-09-19T08:28:07;14.95;;;2.97;;
67839;SDS011;54636;51.684;5.142;2023-09-19T08:30:39;14.38;;;3.33;;
67839;SDS011;54636;51.684;5.142;2023-09-19T08:33:05;14.05;;;2.85;;
67839;SDS011;54636;51.684;5.142;2023-09-19T08:35:31;14.27;;;2.90;;
67839;SDS011;54636;51.684;5.142;2023-09-19T08:37:57;16.15;;;3.45;;
67839;SDS011;54636;51.684;5.142;2023-09-19T08:40:22;11.95;;;2.65;;
67839;SDS011;54636;51.684;5.142;2023-09-19T08:45:19;12.43;;;2.67;;
67839;SDS011;54636;51.684;5.142;2023-09-19T08:47:46;11.50;;;2.55;;
67839;SDS011;54636;51.684;5.142;2023-09-19T08:50:31;13.00;;;2.33;;
67839;SDS011;54636;51.684;5.142;2023-09-19T08:53:01;11.30;;;2.65;;
67839;SDS011;54636;51.684;5.142;2023-09-19T08:55:35;15.70;;;2.55;;
67839;SDS011;54636;51.684;5.142;2023-09-19T08:58:03;8.10;;;2.20;;
67839;SDS011;54636;51.684;5.142;2023-09-19T09:00:31;15.07;;;3.65;;
67839;SDS011;54636;51.684;5.142;2023-09-19T09:02:57;16.58;;;3.47;;
67839;SDS011;54636;51.684;5.142;2023-09-19T09:05:24;15.68;;;2.75;;
67839;SDS011;54636;51.684;5.142;2023-09-19T09:07:51;12.95;;;3.92;;
67839;SDS011;54636;51.684;5.142;2023-09-19T09:10:20;13.40;;;3.15;;
67839;SDS011;54636;51.684;5.142;2023-09-19T09:12:52;12.20;;;2.92;;
67839;SDS011;54636;51.684;5.142;2023-09-19T09:15:21;11.65;;;2.90;;
67839;SDS011;54636;51.684;5.142;2023-09-19T09:17:48;12.13;;;2.45;;
67839;SDS011;54636;51.684;5.142;2023-09-19T09:20:15;12.65;;;2.58;;
67839;SDS011;54636;51.684;5.142;2023-09-19T09:22:52;11.00;;;3.28;;
67839;SDS011;54636;51.684;5.142;2023-09-19T09:25:46;14.02;;;2.78;;
67839;SDS011;54636;51.684;5.142;2023-09-19T09:28:24;12.63;;;2.50;;
67839;SDS011;54636;51.684;5.142;2023-09-19T09:30:52;8.20;;;2.50;;
67839;SDS011;54636;51.684;5.142;2023-09-19T09:33:17;9.13;;;2.30;;
67839;SDS011;54636;51.684;5.142;2023-09-19T09:35:54;10.27;;;2.70;;
67839;SDS011;54636;51.684;5.142;2023-09-19T09:38:29;6.15;;;2.35;;
67839;SDS011;54636;51.684;5.142;2023-09-19T09:41:08;7.30;;;2.10;;
67839;SDS011;54636;51.684;5.142;2023-09-19T09:43:35;9.35;;;2.50;;
67839;SDS011;54636;51.684;5.142;2023-09-19T09:46:10;8.02;;;2.00;;
67839;SDS011;54636;51.684;5.142;2023-09-19T09:51:38;10.35;;;2.97;;
67839;SDS011;54636;51.684;5.142;2023-09-19T09:54:28;15.73;;;3.65;;
67839;SDS011;54636;51.684;5.142;2023-09-19T10:02:26;6.45;;;2.25;;
67839;SDS011;54636;51.684;5.142;2023-09-19T10:05:11;7.65;;;2.47;;
67839;SDS011;54636;51.684;5.142;2023-09-19T10:07:55;11.02;;;2.60;;
67839;SDS011;54636;51.684;5.142;2023-09-19T10:10:44;11.60;;;2.35;;
67839;SDS011;54636;51.684;5.142;2023-09-19T10:13:19;9.20;;;2.20;;
67839;SDS011;54636;51.684;5.142;2023-09-19T10:18:20;10.88;;;2.33;;
67839;SDS011;54636;51.684;5.142;2023-09-19T10:20:48;12.98;;;2.75;;
67839;SDS011;54636;51.684;5.142;2023-09-19T10:23:19;7.75;;;1.98;;
67839;SDS011;54636;51.684;5.142;2023-09-19T10:25:50;7.20;;;2.10;;
67839;SDS011;54636;51.684;5.142;2023-09-19T10:28:17;8.50;;;2.35;;
67839;SDS011;54636;51.684;5.142;2023-09-19T10:30:55;6.60;;;1.98;;
67839;SDS011;54636;51.684;5.142;2023-09-19T10:33:23;6.22;;;1.52;;
67839;SDS011;54636;51.684;5.142;2023-09-19T10:35:52;9.25;;;2.58;;
67839;SDS011;54636;51.684;5.142;2023-09-19T10:38:23;10.80;;;2.22;;
67839;SDS011;54636;51.684;5.142;2023-09-19T10:40:50;11.93;;;2.97;;
67839;SDS011;54636;51.684;5.142;2023-09-19T10:43:18;8.35;;;2.15;;
67839;SDS011;54636;51.684;5.142;2023-09-19T10:45:46;8.20;;;2.25;;
67839;SDS011;54636;51.684;5.142;2023-09-19T10:48:14;7.43;;;2.50;;
67839;SDS011;54636;51.684;5.142;2023-09-19T10:50:51;11.82;;;2.28;;
67839;SDS011;54636;51.684;5.142;2023-09-19T10:53:20;12.80;;;2.05;;
67839;SDS011;54636;51.684;5.142;2023-09-19T10:55:50;8.73;;;1.80;;
67839;SDS011;54636;51.684;5.142;2023-09-19T10:58:29;5.70;;;1.90;;
67839;SDS011;54636;51.684;5.142;2023-09-19T11:01:02;7.78;;;2.08;;
67839;SDS011;54636;51.684;5.142;2023-09-19T11:03:40;7.47;;;1.95;;
67839;SDS011;54636;51.684;5.142;2023-09-19T11:06:18;7.32;;;2.35;;
67839;SDS011;54636;51.684;5.142;2023-09-19T11:11:44;5.72;;;1.52;;
67839;SDS011;54636;51.684;5.142;2023-09-19T11:30:47;7.05;;;2.33;;
67839;SDS011;54636;51.684;5.142;2023-09-19T11:46:51;4.60;;;1.57;;
67839;SDS011;54636;51.684;5.142;2023-09-19T11:49:18;4.05;;;1.65;;
67839;SDS011;54636;51.684;5.142;2023-09-19T11:51:51;9.00;;;1.45;;
67839;SDS011;54636;51.684;5.142;2023-09-19T11:54:17;6.32;;;2.08;;
67839;SDS011;54636;51.684;5.142;2023-09-19T11:56:53;6.75;;;1.77;;
67839;SDS011;54636;51.684;5.142;2023-09-19T11:59:20;6.00;;;1.55;;
67839;SDS011;54636;51.684;5.142;2023-09-19T12:01:56;6.68;;;1.65;;
67839;SDS011;54636;51.684;5.142;2023-09-19T12:04:35;3.13;;;0.95;;
67839;SDS011;54636;51.684;5.142;2023-09-19T12:07:08;9.02;;;1.23;;
67839;SDS011;54636;51.684;5.142;2023-09-19T12:09:41;3.17;;;1.40;;
67839;SDS011;54636;51.684;5.142;2023-09-19T12:12:09;5.82;;;1.33;;
67839;SDS011;54636;51.684;5.142;2023-09-19T12:14:38;4.03;;;1.38;;
67839;SDS011;54636;51.684;5.142;2023-09-19T12:17:04;4.68;;;1.38;;
67839;SDS011;54636;51.684;5.142;2023-09-19T12:19:30;8.23;;;1.50;;
67839;SDS011;54636;51.684;5.142;2023-09-19T12:21:56;6.38;;;1.27;;
67839;SDS011;54636;51.684;5.142;2023-09-19T12:24:31;4.68;;;1.50;;
67839;SDS011;54636;51.684;5.142;2023-09-19T12:27:04;5.57;;;1.02;;
67839;SDS011;54636;51.684;5.142;2023-09-19T12:29:31;6.25;;;1.75;;
67839;SDS011;54636;51.684;5.142;2023-09-19T12:32:07;6.80;;;1.40;;
67839;SDS011;54636;51.684;5.142;2023-09-19T12:34:33;9.05;;;1.40;;
67839;SDS011;54636;51.684;5.142;2023-09-19T12:39:51;6.25;;;1.05;;
67839;SDS011;54636;51.684;5.142;2023-09-19T12:42:23;5.32;;;1.40;;
67839;SDS011;54636;51.684;5.142;2023-09-19T12:44:56;2.83;;;1.40;;
67839;SDS011;54636;51.684;5.142;2023-09-19T12:47:26;3.70;;;1.02;;
67839;SDS011;54636;51.684;5.142;2023-09-19T12:50:13;2.72;;;1.30;;
67839;SDS011;54636;51.684;5.142;2023-09-19T12:52:44;9.25;;;1.77;;
67839;SDS011;54636;51.684;5.142;2023-09-19T12:55:22;3.35;;;1.38;;
67839;SDS011;54636;51.684;5.142;2023-09-19T13:00:34;3.08;;;1.10;;
67839;SDS011;54636;51.684;5.142;2023-09-19T13:05:50;3.97;;;1.30;;
67839;SDS011;54636;51.684;5.142;2023-09-19T13:08:17;1.83;;;0.98;;
67839;SDS011;54636;51.684;5.142;2023-09-19T13:13:41;8.07;;;1.15;;
67839;SDS011;54636;51.684;5.142;2023-09-19T13:16:18;3.90;;;0.97;;
67839;SDS011;54636;51.684;5.142;2023-09-19T13:18:48;1.20;;;0.70;;
67839;SDS011;54636;51.684;5.142;2023-09-19T13:21:34;2.10;;;0.90;;
67839;SDS011;54636;51.684;5.142;2023-09-19T13:26:46;2.37;;;1.30;;
67839;SDS011;54636;51.684;5.142;2023-09-19T13:29:12;7.07;;;1.40;;
67839;SDS011;54636;51.684;5.142;2023-09-19T13:31:37;6.32;;;1.60;;
67839;SDS011;54636;51.684;5.142;2023-09-19T13:34:06;5.78;;;1.63;;
67839;SDS011;54636;51.684;5.142;2023-09-19T13:36:32;5.50;;;1.10;;
67839;SDS011;54636;51.684;5.142;2023-09-19T13:38:58;4.75;;;1.00;;
67839;SDS011;54636;51.684;5.142;2023-09-19T13:41:25;2.08;;;1.38;;
67839;SDS011;54636;51.684;5.142;2023-09-19T13:43:51;3.13;;;1.30;;
67839;SDS011;54636;51.684;5.142;2023-09-19T13:46:16;2.58;;;0.82;;
67839;SDS011;54636;51.684;5.142;2023-09-19T13:48:50;4.88;;;1.58;;
67839;SDS011;54636;51.684;5.142;2023-09-19T13:51:15;5.38;;;0.90;;
67839;SDS011;54636;51.684;5.142;2023-09-19T13:53:41;3.75;;;0.82;;
67839;SDS011;54636;51.684;5.142;2023-09-19T13:56:06;4.40;;;0.82;;
67839;SDS011;54636;51.684;5.142;2023-09-19T13:58:31;3.88;;;1.38;;
67839;SDS011;54636;51.684;5.142;2023-09-19T14:00:58;3.25;;;1.33;;
67839;SDS011;54636;51.684;5.142;2023-09-19T14:03:23;3.03;;;1.13;;
67839;SDS011;54636;51.684;5.142;2023-09-19T14:05:49;7.40;;;1.38;;
67839;SDS011;54636;51.684;5.142;2023-09-19T14:08:16;7.65;;;1.45;;
67839;SDS011;54636;51.684;5.142;2023-09-19T14:10:42;9.73;;;1.50;;
67839;SDS011;54636;51.684;5.142;2023-09-19T14:13:07;8.18;;;1.55;;
67839;SDS011;54636;51.684;5.142;2023-09-19T14:15:36;6.40;;;1.08;;
67839;SDS011;54636;51.684;5.142;2023-09-19T14:18:03;5.60;;;1.50;;
67839;SDS011;54636;51.684;5.142;2023-09-19T14:20:29;8.43;;;2.17;;
67839;SDS011;54636;51.684;5.142;2023-09-19T14:22:56;4.75;;;1.30;;
67839;SDS011;54636;51.684;5.142;2023-09-19T14:25:23;10.32;;;1.70;;
67839;SDS011;54636;51.684;5.142;2023-09-19T14:27:50;4.03;;;1.60;;
67839;SDS011;54636;51.684;5.142;2023-09-19T14:30:16;8.25;;;1.35;;
67839;SDS011;54636;51.684;5.142;2023-09-19T14:32:41;9.93;;;1.83;;
67839;SDS011;54636;51.684;5.142;2023-09-19T14:35:07;7.80;;;1.45;;
67839;SDS011;54636;51.684;5.142;2023-09-19T14:37:34;3.45;;;1.30;;
67839;SDS011;54636;51.684;5.142;2023-09-19T14:40:00;4.18;;;1.52;;
67839;SDS011;54636;51.684;5.142;2023-09-19T14:42:33;7.30;;;1.13;;
67839;SDS011;54636;51.684;5.142;2023-09-19T14:45:04;3.72;;;1.42;;
67839;SDS011;54636;51.684;5.142;2023-09-19T14:47:30;5.25;;;1.70;;
67839;SDS011;54636;51.684;5.142;2023-09-19T14:49:58;3.47;;;1.08;;
67839;SDS011;54636;51.684;5.142;2023-09-19T14:52:25;8.82;;;1.77;;
67839;SDS011;54636;51.684;5.142;2023-09-19T14:54:53;4.35;;;1.10;;
67839;SDS011;54636;51.684;5.142;2023-09-19T14:57:18;13.20;;;1.83;;
67839;SDS011;54636;51.684;5.142;2023-09-19T14:59:44;4.20;;;1.42;;
67839;SDS011;54636;51.684;5.142;2023-09-19T15:02:09;5.22;;;1.45;;
67839;SDS011;54636;51.684;5.142;2023-09-19T15:04:35;5.97;;;1.75;;
67839;SDS011;54636;51.684;5.142;2023-09-19T15:07:05;2.92;;;1.40;;
67839;SDS011;54636;51.684;5.142;2023-09-19T15:09:31;3.25;;;1.00;;
67839;SDS011;54636;51.684;5.142;2023-09-19T15:11:58;6.32;;;1.38;;
67839;SDS011;54636;51.684;5.142;2023-09-19T15:14:24;5.03;;;1.90;;
67839;SDS011;54636;51.684;5.142;2023-09-19T15:16:54;2.88;;;1.13;;
67839;SDS011;54636;51.684;5.142;2023-09-19T15:19:20;6.30;;;1.80;;
67839;SDS011;54636;51.684;5.142;2023-09-19T15:21:47;3.95;;;1.65;;
67839;SDS011;54636;51.684;5.142;2023-09-19T15:24:13;7.93;;;1.75;;
67839;SDS011;54636;51.684;5.142;2023-09-19T15:26:38;5.57;;;1.70;;
67839;SDS011;54636;51.684;5.142;2023-09-19T15:29:08;2.50;;;1.35;;
67839;SDS011;54636;51.684;5.142;2023-09-19T15:31:34;10.07;;;1.50;;
67839;SDS011;54636;51.684;5.142;2023-09-19T15:34:04;2.53;;;1.00;;
67839;SDS011;54636;51.684;5.142;2023-09-19T15:36:31;6.30;;;1.83;;
67839;SDS011;54636;51.684;5.142;2023-09-19T15:38:57;6.68;;;1.40;;
67839;SDS011;54636;51.684;5.142;2023-09-19T15:41:25;3.65;;;1.42;;
67839;SDS011;54636;51.684;5.142;2023-09-19T15:43:51;5.28;;;1.42;;
67839;SDS011;54636;51.684;5.142;2023-09-19T15:46:17;9.38;;;1.92;;
67839;SDS011;54636;51.684;5.142;2023-09-19T15:48:42;5.97;;;1.42;;
67839;SDS011;54636;51.684;5.142;2023-09-19T15:51:09;9.02;;;1.60;;
67839;SDS011;54636;51.684;5.142;2023-09-19T15:56:13;4.10;;;1.70;;
67839;SDS011;54636;51.684;5.142;2023-09-19T15:58:39;3.63;;;1.52;;
67839;SDS011;54636;51.684;5.142;2023-09-19T16:01:06;5.75;;;1.42;;
67839;SDS011;54636;51.684;5.142;2023-09-19T16:03:34;4.82;;;1.58;;
67839;SDS011;54636;51.684;5.142;2023-09-19T16:06:12;2.90;;;1.33;;
67839;SDS011;54636;51.684;5.142;2023-09-19T16:08:42;2.85;;;1.40;;
67839;SDS011;54636;51.684;5.142;2023-09-19T16:11:09;5.00;;;1.73;;
67839;SDS011;54636;51.684;5.142;2023-09-19T16:13:36;7.00;;;2.22;;
67839;SDS011;54636;51.684;5.142;2023-09-19T16:16:02;5.80;;;2.00;;
67839;SDS011;54636;51.684;5.142;2023-09-19T16:18:28;7.57;;;1.75;;
67839;SDS011;54636;51.684;5.142;2023-09-19T16:21:00;4.90;;;1.63;;
67839;SDS011;54636;51.684;5.142;2023-09-19T16:23:26;4.03;;;1.70;;
67839;SDS011;54636;51.684;5.142;2023-09-19T16:26:00;9.80;;;2.00;;